createdAt,value
2022-10-23T00:01:43.242Z,2.83
2022-10-23T00:04:16.635Z,2.30
2022-10-23T00:06:43.986Z,2.42
2022-10-23T00:09:12.844Z,3.15
2022-10-23T00:11:41.528Z,2.90
2022-10-23T00:14:08.764Z,2.65
2022-10-23T00:16:35.750Z,2.70
2022-10-23T00:19:03.518Z,2.85
2022-10-23T00:21:30.239Z,2.80
2022-10-23T00:23:57.082Z,2.42
2022-10-23T00:26:24.019Z,2.78
2022-10-23T00:28:53.345Z,2.83
2022-10-23T00:31:21.869Z,2.70
2022-10-23T00:33:49.532Z,2.90
2022-10-23T00:36:18.500Z,3.10
2022-10-23T00:38:46.030Z,2.70
2022-10-23T00:41:22.738Z,3.00
2022-10-23T00:44:30.041Z,3.40
2022-10-23T00:46:57.509Z,2.92
2022-10-23T00:49:25.498Z,3.53
2022-10-23T00:51:57.101Z,3.33
2022-10-23T00:54:27.367Z,3.40
2022-10-23T00:56:59.108Z,3.22
2022-10-23T00:59:26.803Z,3.40
2022-10-23T01:01:54.134Z,4.05
2022-10-23T01:04:21.735Z,3.58
2022-10-23T01:07:05.488Z,4.78
2022-10-23T01:09:41.643Z,4.28
2022-10-23T01:12:19.537Z,4.20
2022-10-23T01:14:58.487Z,5.10
2022-10-23T01:17:40.864Z,3.95
2022-10-23T01:20:35.199Z,3.78
2022-10-23T01:23:49.679Z,3.53
2022-10-23T01:26:54.364Z,4.05
2022-10-23T01:29:28.068Z,3.47
2022-10-23T01:32:11.778Z,3.63
2022-10-23T01:34:52.870Z,3.85
2022-10-23T01:37:27.259Z,3.83
2022-10-23T01:39:58.370Z,3.55
2022-10-23T01:42:34.287Z,4.07
2022-10-23T01:45:18.054Z,3.97
2022-10-23T01:47:45.705Z,3.95
2022-10-23T01:50:14.786Z,3.72
2022-10-23T01:52:41.800Z,3.58
2022-10-23T01:55:11.862Z,4.20
2022-10-23T01:57:40.507Z,4.28
2022-10-23T02:00:12.010Z,4.10
2022-10-23T02:02:40.518Z,3.67
2022-10-23T02:05:12.304Z,3.92
2022-10-23T02:07:39.423Z,4.00
2022-10-23T02:10:08.325Z,3.95
2022-10-23T02:12:59.924Z,4.30
2022-10-23T02:15:38.587Z,3.60
2022-10-23T02:18:18.598Z,3.75
2022-10-23T02:20:56.013Z,3.70
2022-10-23T02:23:25.742Z,3.58
2022-10-23T02:26:12.639Z,4.00
2022-10-23T02:28:47.537Z,3.88
2022-10-23T02:31:17.524Z,3.65
2022-10-23T02:33:47.040Z,3.78
2022-10-23T02:36:14.690Z,4.10
2022-10-23T02:38:43.761Z,3.88
2022-10-23T02:41:37.831Z,3.80
2022-10-23T02:44:22.680Z,3.78
2022-10-23T02:46:55.132Z,4.05
2022-10-23T02:49:40.599Z,3.33
2022-10-23T02:52:25.867Z,3.97
2022-10-23T02:55:16.567Z,3.28
2022-10-23T02:57:49.688Z,3.22
2022-10-23T03:00:19.315Z,3.70
2022-10-23T03:02:50.235Z,3.50
2022-10-23T03:05:21.982Z,3.80
2022-10-23T03:07:49.306Z,3.58
2022-10-23T03:10:16.015Z,3.47
2022-10-23T03:12:43.138Z,3.28
2022-10-23T03:15:12.515Z,3.58
2022-10-23T03:17:39.792Z,3.90
2022-10-23T03:20:07.436Z,3.70
2022-10-23T03:22:34.822Z,3.33
2022-10-23T03:25:01.782Z,3.45
2022-10-23T03:30:00.113Z,3.65
2022-10-23T03:32:26.827Z,3.42
2022-10-23T03:34:53.710Z,2.92
2022-10-23T03:37:20.605Z,3.35
2022-10-23T03:39:47.319Z,3.45
2022-10-23T03:42:14.364Z,3.40
2022-10-23T03:44:41.071Z,3.50
2022-10-23T03:47:09.895Z,3.63
2022-10-23T03:49:36.810Z,3.38
2022-10-23T03:52:03.857Z,3.38
2022-10-23T03:54:30.873Z,3.35
2022-10-23T03:56:57.955Z,3.17
2022-10-23T03:59:24.743Z,4.05
2022-10-23T04:01:51.589Z,3.70
2022-10-23T04:04:18.426Z,3.50
2022-10-23T04:06:45.483Z,3.50
2022-10-23T04:11:39.895Z,3.60
2022-10-23T04:14:06.645Z,3.55
2022-10-23T04:16:33.353Z,3.80
2022-10-23T04:19:00.068Z,3.55
2022-10-23T04:21:26.822Z,3.28
2022-10-23T04:23:53.713Z,3.40
2022-10-23T04:26:20.477Z,3.22
2022-10-23T04:28:47.285Z,3.08
2022-10-23T04:31:14.144Z,2.90
2022-10-23T04:33:40.940Z,3.50
2022-10-23T04:36:08.186Z,2.83
2022-10-23T04:38:34.843Z,3.03
2022-10-23T04:41:01.508Z,2.90
2022-10-23T04:43:28.260Z,2.90
2022-10-23T04:45:55.010Z,2.90
2022-10-23T04:48:25.501Z,3.28
2022-10-23T04:51:00.659Z,3.22
2022-10-23T04:53:28.569Z,2.67
2022-10-23T04:55:57.710Z,2.72
2022-10-23T04:58:25.869Z,3.25
2022-10-23T05:00:53.113Z,3.35
2022-10-23T05:03:21.616Z,3.10
2022-10-23T05:05:48.358Z,2.78
2022-10-23T05:08:17.916Z,2.85
2022-10-23T05:10:45.090Z,2.90
2022-10-23T05:13:11.774Z,2.65
2022-10-23T05:15:38.538Z,3.03
2022-10-23T05:18:28.028Z,2.80
2022-10-23T05:21:05.064Z,2.75
2022-10-23T05:23:33.939Z,2.50
2022-10-23T05:26:00.688Z,2.72
2022-10-23T05:28:27.443Z,2.97
2022-10-23T05:30:54.382Z,2.40
2022-10-23T05:33:21.217Z,2.63
2022-10-23T05:35:48.004Z,3.47
2022-10-23T05:38:15.695Z,2.92
2022-10-23T05:40:42.682Z,2.60
2022-10-23T05:43:09.406Z,2.88
2022-10-23T05:45:36.141Z,3.78
2022-10-23T05:48:10.923Z,3.03
2022-10-23T05:50:43.658Z,3.10
2022-10-23T05:53:11.101Z,3.47
2022-10-23T05:55:38.242Z,3.40
2022-10-23T05:58:05.140Z,3.60
2022-10-23T06:00:31.917Z,3.83
2022-10-23T06:03:02.119Z,4.05
2022-10-23T06:05:28.877Z,4.05
2022-10-23T06:07:59.607Z,3.83
2022-10-23T06:10:27.403Z,4.13
2022-10-23T06:12:54.143Z,3.65
2022-10-23T06:15:20.958Z,3.55
2022-10-23T06:17:47.808Z,3.50
2022-10-23T06:20:14.524Z,3.15
2022-10-23T06:22:41.514Z,2.97
2022-10-23T06:25:09.003Z,3.05
2022-10-23T06:27:35.670Z,3.47
2022-10-23T06:30:02.509Z,2.85
2022-10-23T06:32:32.044Z,3.00
2022-10-23T06:34:58.796Z,3.20
2022-10-23T06:37:25.521Z,2.92
2022-10-23T06:39:52.238Z,3.00
2022-10-23T06:42:19.014Z,2.83
2022-10-23T06:44:45.761Z,2.85
2022-10-23T06:47:14.332Z,2.92
2022-10-23T06:49:41.257Z,3.28
2022-10-23T06:52:14.394Z,4.10
2022-10-23T06:54:50.036Z,5.22
2022-10-23T06:57:16.740Z,8.27
2022-10-23T06:59:43.438Z,5.25
2022-10-23T07:02:10.630Z,4.80
2022-10-23T07:04:37.330Z,5.47
2022-10-23T07:07:04.061Z,4.70
2022-10-23T07:09:30.808Z,4.88
2022-10-23T07:11:57.534Z,4.30
2022-10-23T07:14:24.273Z,4.00
2022-10-23T07:16:51.025Z,3.70
2022-10-23T07:19:17.747Z,3.00
2022-10-23T07:21:44.475Z,3.55
2022-10-23T07:24:11.254Z,3.40
2022-10-23T07:26:38.054Z,3.28
2022-10-23T07:29:04.892Z,3.13
2022-10-23T07:31:31.606Z,3.13
2022-10-23T07:33:58.302Z,2.72
2022-10-23T07:36:25.119Z,2.97
2022-10-23T07:38:51.913Z,2.65
2022-10-23T07:41:18.666Z,3.63
2022-10-23T07:43:46.415Z,3.28
2022-10-23T07:46:13.249Z,2.40
2022-10-23T07:48:40.843Z,2.58
2022-10-23T07:51:12.504Z,2.78
2022-10-23T07:53:40.019Z,2.42
2022-10-23T07:56:17.660Z,3.00
2022-10-23T07:58:44.963Z,2.47
2022-10-23T08:01:21.484Z,2.17
2022-10-23T08:03:48.481Z,2.67
2022-10-23T08:06:15.471Z,2.17
2022-10-23T08:08:42.229Z,2.20
2022-10-23T08:11:12.430Z,2.47
2022-10-23T08:13:39.116Z,1.98
2022-10-23T08:16:06.398Z,2.33
2022-10-23T08:18:33.603Z,2.17
2022-10-23T08:21:03.039Z,2.08
2022-10-23T08:23:30.177Z,1.90
2022-10-23T08:25:59.089Z,1.90
2022-10-23T08:28:26.317Z,2.00
2022-10-23T08:30:53.424Z,2.08
2022-10-23T08:33:20.425Z,2.00
2022-10-23T08:35:47.262Z,2.33
2022-10-23T08:38:13.918Z,2.20
2022-10-23T08:40:47.762Z,2.35
2022-10-23T08:43:29.372Z,2.35
2022-10-23T08:46:03.353Z,2.47
2022-10-23T08:48:55.743Z,2.08
2022-10-23T08:51:29.126Z,3.25
2022-10-23T08:54:20.477Z,2.78
2022-10-23T08:56:55.699Z,2.70
2022-10-23T08:59:43.065Z,2.05
2022-10-23T09:02:19.879Z,2.30
2022-10-23T09:04:48.794Z,2.38
2022-10-23T09:07:24.588Z,2.30
2022-10-23T09:10:16.208Z,2.42
2022-10-23T09:12:43.384Z,2.30
2022-10-23T09:15:31.854Z,2.00
2022-10-23T09:18:04.687Z,2.03
2022-10-23T09:20:36.395Z,2.10
2022-10-23T09:23:14.201Z,2.10
2022-10-23T09:25:41.797Z,1.80
2022-10-23T09:28:20.454Z,1.77
2022-10-23T09:30:48.513Z,1.90
2022-10-23T09:33:23.137Z,1.80
2022-10-23T09:36:01.899Z,1.73
2022-10-23T09:38:34.457Z,1.98
2022-10-23T09:41:10.981Z,2.00
2022-10-23T09:43:37.737Z,1.52
2022-10-23T09:46:06.575Z,1.52
2022-10-23T09:48:34.533Z,1.58
2022-10-23T09:51:04.484Z,1.20
2022-10-23T09:53:34.926Z,1.13
2022-10-23T09:56:07.843Z,1.50
2022-10-23T09:58:38.703Z,1.25
2022-10-23T10:01:05.977Z,1.27
2022-10-23T10:03:32.815Z,1.48
2022-10-23T10:06:04.732Z,1.50
2022-10-23T10:08:49.089Z,1.67
2022-10-23T10:11:42.714Z,1.38
2022-10-23T10:14:18.271Z,1.20
2022-10-23T10:16:52.318Z,1.30
2022-10-23T10:19:37.078Z,1.35
2022-10-23T10:22:28.348Z,1.33
2022-10-23T10:25:02.888Z,1.40
2022-10-23T10:27:36.858Z,1.40
2022-10-23T10:30:23.843Z,1.05
2022-10-23T10:33:16.604Z,1.48
2022-10-23T10:36:12.719Z,1.20
2022-10-23T10:38:52.801Z,1.30
2022-10-23T10:41:45.000Z,1.38
2022-10-23T10:44:33.549Z,1.40
2022-10-23T10:47:21.201Z,1.50
2022-10-23T10:50:17.691Z,1.40
2022-10-23T10:53:28.074Z,1.45
2022-10-23T10:55:56.801Z,1.48
2022-10-23T10:58:40.559Z,1.40
2022-10-23T11:01:26.575Z,1.65
2022-10-23T11:04:26.475Z,1.30
2022-10-23T11:06:55.389Z,1.65
2022-10-23T11:09:27.316Z,1.30
2022-10-23T11:11:54.571Z,1.58
2022-10-23T11:14:27.513Z,1.48
2022-10-23T11:16:57.291Z,2.03
2022-10-23T11:19:52.278Z,1.42
2022-10-23T11:22:42.346Z,1.52
2022-10-23T11:25:23.508Z,1.63
2022-10-23T11:28:03.365Z,1.60
2022-10-23T11:30:49.372Z,1.50
2022-10-23T11:33:39.268Z,1.67
2022-10-23T11:36:16.300Z,1.33
2022-10-23T11:38:49.756Z,1.27
2022-10-23T11:41:21.041Z,1.05
2022-10-23T11:44:05.115Z,0.88
2022-10-23T11:46:35.310Z,1.70
2022-10-23T11:49:06.058Z,1.77
2022-10-23T11:51:40.580Z,1.30
2022-10-23T11:54:08.448Z,1.27
2022-10-23T11:56:35.839Z,1.20
2022-10-23T11:59:52.055Z,1.10
2022-10-23T12:02:29.142Z,1.10
2022-10-23T12:04:56.443Z,0.95
2022-10-23T12:07:24.752Z,1.20
2022-10-23T12:10:04.560Z,1.10
2022-10-23T12:12:40.716Z,1.00
2022-10-23T12:15:14.532Z,1.10
2022-10-23T12:17:43.244Z,0.98
2022-10-23T12:20:13.182Z,1.10
2022-10-23T12:22:47.533Z,1.30
2022-10-23T12:25:37.081Z,1.02
2022-10-23T12:28:18.827Z,1.15
2022-10-23T12:30:50.866Z,0.90
2022-10-23T12:33:49.379Z,1.25
2022-10-23T12:36:16.016Z,1.20
2022-10-23T12:38:45.884Z,1.27
2022-10-23T12:41:19.143Z,0.88
2022-10-23T12:43:55.792Z,1.33
2022-10-23T12:46:31.013Z,1.23
2022-10-23T12:48:59.294Z,1.15
2022-10-23T12:51:31.784Z,1.35
2022-10-23T12:53:58.852Z,1.38
2022-10-23T12:56:28.584Z,1.17
2022-10-23T12:59:02.147Z,1.23
2022-10-23T13:01:33.540Z,1.45
2022-10-23T13:04:21.073Z,1.35
2022-10-23T13:06:49.777Z,1.92
2022-10-23T13:09:24.351Z,1.85
2022-10-23T13:11:52.126Z,1.65
2022-10-23T13:14:33.849Z,1.58
2022-10-23T13:17:02.934Z,1.63
2022-10-23T13:19:29.836Z,1.80
2022-10-23T13:21:57.456Z,1.50
2022-10-23T13:24:27.420Z,1.90
2022-10-23T13:26:55.131Z,1.70
2022-10-23T13:29:28.549Z,1.85
2022-10-23T13:31:55.358Z,1.42
2022-10-23T13:34:26.683Z,1.20
2022-10-23T13:36:57.306Z,1.30
2022-10-23T13:39:29.996Z,1.50
2022-10-23T13:42:01.392Z,1.25
2022-10-23T13:44:29.151Z,1.20
2022-10-23T13:46:56.485Z,1.38
2022-10-23T13:49:23.302Z,2.00
2022-10-23T13:51:53.392Z,1.48
2022-10-23T13:56:58.065Z,1.30
2022-10-23T13:59:24.808Z,2.60
2022-10-23T14:01:51.835Z,2.20
2022-10-23T14:04:19.482Z,1.75
2022-10-23T14:06:46.323Z,1.88
2022-10-23T14:09:16.960Z,1.63
2022-10-23T14:11:44.181Z,1.13
2022-10-23T14:14:10.936Z,1.20
2022-10-23T14:16:37.980Z,1.15
2022-10-23T14:19:04.970Z,1.67
2022-10-23T14:21:31.902Z,1.25
2022-10-23T14:23:58.607Z,1.08
2022-10-23T14:26:30.460Z,1.38
2022-10-23T14:29:01.052Z,1.20
2022-10-23T14:31:31.877Z,1.20
2022-10-23T14:34:00.729Z,1.40
2022-10-23T14:36:38.337Z,1.20
2022-10-23T14:39:15.745Z,1.50
2022-10-23T14:41:42.477Z,1.20
2022-10-23T14:44:09.173Z,1.20
2022-10-23T14:57:21.055Z,1.92
2022-10-23T14:59:48.926Z,1.60
2022-10-23T15:02:16.514Z,2.17
2022-10-23T15:04:43.214Z,2.10
2022-10-23T15:07:09.885Z,1.75
2022-10-23T15:09:36.701Z,2.05
2022-10-23T15:12:04.703Z,1.90
2022-10-23T15:14:31.699Z,1.90
2022-10-23T15:16:58.452Z,1.60
2022-10-23T15:19:26.436Z,1.80
2022-10-23T15:21:53.162Z,2.03
2022-10-23T15:24:21.303Z,1.92
2022-10-23T15:26:49.834Z,2.15
2022-10-23T15:29:16.639Z,2.03
2022-10-23T15:31:57.354Z,2.00
2022-10-23T15:34:27.171Z,1.85
2022-10-23T15:36:55.489Z,2.30
2022-10-23T15:39:25.427Z,2.20
2022-10-23T15:41:54.216Z,1.90
2022-10-23T15:44:22.984Z,1.70
2022-10-23T15:46:50.280Z,2.40
2022-10-23T15:49:17.146Z,2.55
2022-10-23T15:51:44.329Z,2.10
2022-10-23T15:54:16.670Z,2.50
2022-10-23T15:56:44.412Z,2.50
2022-10-23T15:59:11.087Z,2.88
2022-10-23T16:01:38.415Z,2.97
2022-10-23T16:04:05.455Z,4.20
2022-10-23T16:06:32.528Z,3.92
2022-10-23T16:08:59.888Z,3.08
2022-10-23T16:11:36.477Z,2.45
2022-10-23T16:14:04.231Z,2.60
2022-10-23T16:16:32.210Z,1.85
2022-10-23T16:19:00.615Z,2.83
2022-10-23T16:21:32.997Z,2.65
2022-10-23T16:24:01.430Z,2.50
2022-10-23T16:26:29.820Z,2.97
2022-10-23T16:28:59.394Z,3.63
2022-10-23T16:31:27.147Z,3.05
2022-10-23T16:33:54.515Z,3.10
2022-10-23T16:36:21.573Z,3.25
2022-10-23T16:38:48.306Z,3.17
2022-10-23T16:41:15.055Z,2.33
2022-10-23T16:43:41.808Z,2.63
2022-10-23T16:46:20.248Z,2.55
2022-10-23T16:48:47.159Z,2.40
2022-10-23T16:51:17.345Z,2.67
2022-10-23T16:53:45.131Z,2.33
2022-10-23T16:56:15.291Z,2.40
2022-10-23T16:58:42.998Z,2.40
2022-10-23T17:01:16.095Z,2.45
2022-10-23T17:03:46.110Z,3.10
2022-10-23T17:06:14.846Z,3.22
2022-10-23T17:08:42.154Z,2.55
2022-10-23T17:11:14.596Z,3.00
2022-10-23T17:13:44.347Z,2.80
2022-10-23T17:16:14.120Z,2.40
2022-10-23T17:18:43.969Z,2.50
2022-10-23T17:21:12.850Z,2.40
2022-10-23T17:23:40.040Z,2.70
2022-10-23T17:26:13.459Z,2.40
2022-10-23T17:28:42.311Z,2.45
2022-10-23T17:31:17.669Z,2.38
2022-10-23T17:33:45.695Z,2.85
2022-10-23T17:36:15.100Z,2.70
2022-10-23T17:38:43.691Z,2.42
2022-10-23T17:41:12.510Z,2.90
2022-10-23T17:43:39.461Z,3.10
2022-10-23T17:46:07.775Z,2.58
2022-10-23T17:48:35.158Z,2.63
2022-10-23T17:51:04.171Z,2.83
2022-10-23T17:53:30.990Z,2.63
2022-10-23T17:56:00.904Z,2.25
2022-10-23T17:58:27.789Z,2.60
2022-10-23T18:00:54.550Z,2.40
2022-10-23T18:03:21.459Z,2.88
2022-10-23T18:05:48.360Z,3.10
2022-10-23T18:08:15.193Z,4.05
2022-10-23T18:10:41.904Z,4.03
2022-10-23T18:13:08.668Z,5.35
2022-10-23T18:15:35.898Z,3.90
2022-10-23T18:18:07.838Z,3.75
2022-10-23T18:20:40.000Z,4.80
2022-10-23T18:23:07.891Z,4.18
2022-10-23T18:25:35.044Z,3.45
2022-10-23T18:28:02.634Z,3.53
2022-10-23T18:30:29.688Z,3.38
2022-10-23T18:32:58.170Z,3.42
2022-10-23T18:35:25.274Z,3.10
2022-10-23T18:37:52.426Z,3.13
2022-10-23T18:40:20.536Z,2.80
2022-10-23T18:42:48.253Z,3.05
2022-10-23T18:45:15.280Z,3.90
2022-10-23T18:47:42.382Z,5.50
2022-10-23T18:50:09.827Z,3.90
2022-10-23T18:52:36.588Z,4.78
2022-10-23T18:55:06.189Z,5.28
2022-10-23T18:57:34.378Z,4.18
2022-10-23T19:00:02.087Z,4.28
2022-10-23T19:02:30.373Z,4.75
2022-10-23T19:04:57.530Z,4.38
2022-10-23T19:07:24.674Z,3.83
2022-10-23T19:09:52.192Z,4.32
2022-10-23T19:12:19.322Z,3.40
2022-10-23T19:14:46.510Z,3.30
2022-10-23T19:17:23.119Z,4.13
2022-10-23T19:19:59.564Z,3.40
2022-10-23T19:22:28.771Z,3.03
2022-10-23T19:24:59.234Z,2.97
2022-10-23T19:27:30.055Z,2.92
2022-10-23T19:30:01.166Z,3.28
2022-10-23T19:32:27.902Z,2.80
2022-10-23T19:34:54.790Z,2.97
2022-10-23T19:37:21.548Z,2.90
2022-10-23T19:39:48.278Z,3.10
2022-10-23T19:42:15.023Z,2.88
2022-10-23T19:44:41.828Z,3.30
2022-10-23T19:47:08.574Z,3.50
2022-10-23T19:49:35.320Z,3.90
2022-10-23T19:52:02.084Z,3.20
2022-10-23T19:54:28.870Z,3.30
2022-10-23T19:56:57.143Z,3.22
2022-10-23T19:59:24.605Z,2.83
2022-10-23T20:01:51.501Z,2.67
2022-10-23T20:04:18.828Z,3.33
2022-10-23T20:06:46.310Z,2.83
2022-10-23T20:09:13.167Z,3.08
2022-10-23T20:11:40.329Z,3.30
2022-10-23T20:14:07.945Z,2.70
2022-10-23T20:16:37.298Z,3.03
2022-10-23T20:19:10.227Z,3.28
2022-10-23T20:21:41.887Z,2.90
2022-10-23T20:24:09.742Z,3.20
2022-10-23T20:26:38.970Z,3.33
2022-10-23T20:29:05.881Z,3.78
2022-10-23T20:31:33.292Z,3.28
2022-10-23T20:34:00.225Z,2.63
2022-10-23T20:36:29.883Z,3.40
2022-10-23T20:38:59.029Z,2.65
2022-10-23T20:41:27.128Z,3.03
2022-10-23T20:43:55.858Z,2.88
2022-10-23T20:46:23.253Z,3.40
2022-10-23T20:48:50.486Z,4.93
2022-10-23T20:51:19.969Z,4.00
2022-10-23T20:53:51.001Z,4.22
2022-10-23T20:56:23.610Z,3.60
2022-10-23T20:58:50.893Z,3.80
2022-10-23T21:01:18.300Z,4.15
2022-10-23T21:03:51.006Z,4.75
2022-10-23T21:06:19.493Z,3.92
2022-10-23T21:08:46.359Z,4.03
2022-10-23T21:11:17.353Z,3.70
2022-10-23T21:13:44.977Z,3.95
2022-10-23T21:16:27.590Z,3.47
2022-10-23T21:18:56.837Z,3.20
2022-10-23T21:21:24.730Z,3.03
2022-10-23T21:23:53.645Z,3.10
2022-10-23T21:26:22.504Z,3.22
2022-10-23T21:28:56.238Z,3.67
2022-10-23T21:31:33.949Z,2.95
2022-10-23T21:34:00.894Z,3.35
2022-10-23T21:36:29.841Z,3.10
2022-10-23T21:38:59.140Z,3.20
2022-10-23T21:41:29.213Z,3.33
2022-10-23T21:43:59.586Z,3.47
2022-10-23T21:46:27.265Z,2.58
2022-10-23T21:48:54.311Z,1.90
2022-10-23T21:51:29.185Z,1.63
2022-10-23T21:53:57.070Z,1.40
2022-10-23T21:56:45.286Z,1.10
2022-10-23T21:59:20.455Z,1.60
2022-10-23T22:01:48.850Z,1.30
2022-10-23T22:04:17.551Z,1.42
2022-10-23T22:06:45.099Z,1.25
2022-10-23T22:09:15.839Z,1.25
2022-10-23T22:11:42.716Z,1.23
2022-10-23T22:14:09.478Z,1.58
2022-10-23T22:16:36.371Z,1.15
2022-10-23T22:19:03.395Z,1.65
2022-10-23T22:21:30.679Z,1.83
2022-10-23T22:23:59.388Z,1.35
2022-10-23T22:26:48.234Z,1.70
2022-10-23T22:29:17.875Z,1.48
2022-10-23T22:31:48.814Z,1.55
2022-10-23T22:34:47.816Z,1.42
2022-10-23T22:37:11.022Z,1.23
2022-10-23T22:39:38.384Z,1.38
2022-10-23T22:42:05.324Z,1.70
2022-10-23T22:44:31.966Z,1.30
2022-10-23T22:46:58.707Z,1.58
2022-10-23T22:49:25.426Z,1.88
2022-10-23T22:51:52.104Z,1.65
2022-10-23T22:54:18.833Z,1.33
2022-10-23T22:56:45.572Z,1.20
2022-10-23T22:59:12.257Z,1.52
2022-10-23T23:01:42.501Z,1.63
2022-10-23T23:04:25.890Z,1.83
2022-10-23T23:06:57.994Z,2.10
2022-10-23T23:09:24.733Z,1.63
2022-10-23T23:11:52.583Z,1.55
2022-10-23T23:14:23.503Z,1.70
2022-10-23T23:16:52.854Z,1.83
2022-10-23T23:19:19.827Z,1.70
2022-10-23T23:21:46.629Z,1.45
2022-10-23T23:24:13.381Z,2.10
2022-10-23T23:26:40.208Z,1.45
2022-10-23T23:29:06.917Z,1.85
2022-10-23T23:31:33.691Z,2.30
2022-10-23T23:34:00.974Z,2.90
2022-10-23T23:36:28.298Z,2.80
2022-10-23T23:38:56.520Z,2.22
2022-10-23T23:41:23.666Z,2.28
2022-10-23T23:43:50.677Z,1.80
2022-10-23T23:46:18.030Z,1.45
2022-10-23T23:48:48.331Z,1.80
2022-10-23T23:51:22.235Z,2.05
2022-10-23T23:53:49.304Z,1.55
2022-10-23T23:56:16.497Z,1.70
2022-10-23T23:58:43.204Z,1.50
